createdAt,value
2019-02-06T00:00:07.943Z,17.20
2019-02-06T00:01:03.113Z,17.77
2019-02-06T00:01:45.703Z,16.27
2019-02-06T00:02:23.884Z,17.37
2019-02-06T00:03:02.031Z,17.80
2019-02-06T00:03:39.963Z,17.87
2019-02-06T00:04:18.111Z,16.85
2019-02-06T00:04:55.863Z,17.98
2019-02-06T00:05:33.159Z,19.05
2019-02-06T00:06:11.037Z,18.60
2019-02-06T00:06:48.207Z,17.35
2019-02-06T00:07:26.053Z,18.00
2019-02-06T00:08:04.104Z,19.00
2019-02-06T00:08:42.017Z,17.15
2019-02-06T00:09:20.443Z,18.80
2019-02-06T00:09:57.639Z,17.57
2019-02-06T00:10:35.781Z,17.60
2019-02-06T00:11:13.749Z,17.82
2019-02-06T00:11:51.825Z,17.23
2019-02-06T00:12:33.195Z,19.00
2019-02-06T00:13:17.913Z,17.70
2019-02-06T00:13:56.083Z,18.20
2019-02-06T00:14:33.525Z,18.30
2019-02-06T00:15:11.298Z,17.62
2019-02-06T00:15:48.850Z,17.40
2019-02-06T00:16:26.291Z,18.73
2019-02-06T00:17:03.732Z,17.48
2019-02-06T00:17:41.784Z,18.37
2019-02-06T00:18:19.724Z,17.62
2019-02-06T00:18:57.453Z,17.95
2019-02-06T00:19:34.559Z,16.42
2019-02-06T00:20:12.052Z,17.40
2019-02-06T00:20:49.751Z,17.85
2019-02-06T00:21:27.881Z,19.27
2019-02-06T00:22:08.493Z,15.78
2019-02-06T00:22:46.272Z,15.95
2019-02-06T00:23:24.091Z,16.70
2019-02-06T00:24:02.093Z,16.17
2019-02-06T00:24:40.149Z,17.05
2019-02-06T00:25:20.584Z,16.60
2019-02-06T00:25:58.284Z,15.38
2019-02-06T00:26:36.252Z,15.20
2019-02-06T00:27:23.602Z,14.20
2019-02-06T00:28:01.458Z,14.85
2019-02-06T00:28:39.599Z,15.83
2019-02-06T00:29:19.583Z,16.15
2019-02-06T00:30:00.481Z,16.30
2019-02-06T00:30:37.924Z,16.10
2019-02-06T00:31:18.981Z,16.95
2019-02-06T00:31:57.048Z,14.75
2019-02-06T00:32:34.654Z,15.55
2019-02-06T00:33:14.821Z,17.00
2019-02-06T00:33:52.381Z,16.97
2019-02-06T00:34:29.761Z,16.70
2019-02-06T00:35:08.187Z,17.12
2019-02-06T00:35:46.249Z,18.07
2019-02-06T00:36:23.719Z,15.50
2019-02-06T00:37:01.533Z,17.62
2019-02-06T00:37:39.314Z,18.60
2019-02-06T00:38:17.409Z,17.65
2019-02-06T00:38:55.098Z,18.23
2019-02-06T00:39:32.683Z,17.65
2019-02-06T00:40:11.195Z,19.07
2019-02-06T00:40:49.221Z,19.02
2019-02-06T00:41:26.724Z,20.68
2019-02-06T00:42:08.383Z,19.90
2019-02-06T00:42:51.113Z,19.42
2019-02-06T00:43:34.942Z,18.87
2019-02-06T00:44:12.905Z,18.73
2019-02-06T00:44:50.411Z,20.08
2019-02-06T00:45:28.125Z,20.77
2019-02-06T00:46:06.015Z,21.00
2019-02-06T00:46:44.125Z,22.15
2019-02-06T00:47:21.959Z,20.77
2019-02-06T00:48:00.087Z,21.93
2019-02-06T00:48:37.769Z,21.80
2019-02-06T00:49:15.766Z,23.73
2019-02-06T00:49:53.571Z,22.22
2019-02-06T00:50:31.109Z,23.47
2019-02-06T00:51:09.035Z,21.97
2019-02-06T00:51:46.509Z,24.50
2019-02-06T00:52:23.884Z,24.70
2019-02-06T00:53:01.619Z,24.63
2019-02-06T00:53:39.459Z,22.93
2019-02-06T00:54:17.202Z,23.15
2019-02-06T00:54:54.640Z,23.77
2019-02-06T00:55:32.597Z,21.93
2019-02-06T00:56:10.687Z,24.82
2019-02-06T00:56:51.344Z,26.10
2019-02-06T00:57:28.679Z,27.00
2019-02-06T00:58:06.308Z,24.77
2019-02-06T00:58:44.073Z,25.08
2019-02-06T00:59:21.429Z,23.90
2019-02-06T01:00:00.306Z,23.55
2019-02-06T01:00:38.480Z,24.63
2019-02-06T01:01:20.534Z,26.50
2019-02-06T01:01:58.446Z,24.50
2019-02-06T01:02:36.635Z,25.75
2019-02-06T01:03:14.716Z,25.80
2019-02-06T01:03:52.336Z,26.48
2019-02-06T01:04:30.344Z,26.40
2019-02-06T01:05:08.297Z,24.70
2019-02-06T01:05:46.397Z,25.82
2019-02-06T01:06:24.587Z,25.77
2019-02-06T01:07:02.379Z,27.05
2019-02-06T01:07:40.095Z,28.23
2019-02-06T01:08:18.050Z,26.68
2019-02-06T01:08:55.124Z,27.05
2019-02-06T01:09:32.645Z,27.73
2019-02-06T01:10:11.787Z,27.50
2019-02-06T01:10:50.115Z,27.77
2019-02-06T01:11:28.207Z,28.20
2019-02-06T01:12:06.212Z,28.30
2019-02-06T01:12:43.932Z,28.60
2019-02-06T01:13:21.359Z,28.67
2019-02-06T01:13:59.037Z,28.83
2019-02-06T01:14:36.463Z,28.75
2019-02-06T01:15:14.874Z,28.00
2019-02-06T01:15:53.011Z,28.73
2019-02-06T01:16:30.197Z,28.85
2019-02-06T01:17:08.049Z,26.52
2019-02-06T01:17:45.754Z,28.87
2019-02-06T01:18:23.603Z,27.25
2019-02-06T01:19:01.647Z,27.67
2019-02-06T01:19:39.438Z,29.00
2019-02-06T01:20:17.725Z,26.95
2019-02-06T01:20:56.243Z,27.32
2019-02-06T01:21:34.009Z,27.45
2019-02-06T01:22:11.999Z,27.25
2019-02-06T01:22:49.753Z,29.92
2019-02-06T01:23:27.905Z,28.02
2019-02-06T01:24:06.047Z,28.98
2019-02-06T01:24:43.855Z,27.65
2019-02-06T01:25:21.515Z,27.62
2019-02-06T01:25:59.102Z,27.30
2019-02-06T01:26:36.312Z,28.12
2019-02-06T01:27:13.688Z,29.15
2019-02-06T01:27:51.219Z,29.45
2019-02-06T01:28:29.177Z,27.65
2019-02-06T01:29:09.663Z,26.23
2019-02-06T01:29:47.623Z,25.62
2019-02-06T01:30:26.466Z,27.10
2019-02-06T01:31:07.429Z,28.10
2019-02-06T01:31:44.935Z,27.05
2019-02-06T01:32:22.796Z,26.70
2019-02-06T01:33:00.221Z,28.15
2019-02-06T01:33:39.692Z,28.25
2019-02-06T01:34:17.381Z,28.73
2019-02-06T01:34:57.313Z,28.65
2019-02-06T01:35:35.409Z,26.90
2019-02-06T01:36:13.291Z,26.30
2019-02-06T01:36:50.771Z,27.32
2019-02-06T01:37:28.791Z,28.87
2019-02-06T01:38:06.859Z,29.00
2019-02-06T01:38:44.569Z,28.60
2019-02-06T01:39:22.324Z,26.97
2019-02-06T01:40:00.041Z,28.07
2019-02-06T01:40:37.689Z,27.98
2019-02-06T01:41:15.074Z,29.48
2019-02-06T01:41:52.543Z,29.45
2019-02-06T01:42:36.179Z,28.87
2019-02-06T01:43:19.835Z,27.00
2019-02-06T01:43:57.473Z,27.42
2019-02-06T01:44:35.160Z,30.97
2019-02-06T01:45:14.623Z,29.57
2019-02-06T01:45:58.517Z,28.90
2019-02-06T01:46:36.217Z,27.42
2019-02-06T01:47:13.575Z,29.98
2019-02-06T01:47:51.091Z,29.82
2019-02-06T01:48:28.463Z,28.77
2019-02-06T01:49:06.667Z,28.67
2019-02-06T01:49:44.924Z,30.00
2019-02-06T01:50:23.077Z,28.17
2019-02-06T01:51:01.133Z,29.15
2019-02-06T01:51:41.446Z,30.30
2019-02-06T01:52:21.461Z,29.23
2019-02-06T01:52:59.649Z,28.57
2019-02-06T01:53:37.703Z,29.02
2019-02-06T01:54:15.286Z,29.25
2019-02-06T01:54:53.257Z,28.02
2019-02-06T01:55:31.015Z,27.77
2019-02-06T01:56:11.437Z,29.92
2019-02-06T01:56:49.497Z,28.38
2019-02-06T01:57:27.363Z,29.18
2019-02-06T01:58:05.052Z,27.20
2019-02-06T01:58:42.972Z,29.18
2019-02-06T01:59:20.672Z,27.75
2019-02-06T01:59:59.247Z,28.27
2019-02-06T02:00:37.131Z,27.10
2019-02-06T02:01:18.689Z,29.60
2019-02-06T02:01:56.697Z,27.98
2019-02-06T02:02:34.360Z,30.17
2019-02-06T02:03:11.889Z,30.23
2019-02-06T02:03:49.255Z,29.07
2019-02-06T02:04:29.766Z,28.25
2019-02-06T02:05:07.341Z,29.52
2019-02-06T02:05:45.764Z,28.90
2019-02-06T02:06:23.708Z,27.40
2019-02-06T02:07:01.871Z,28.42
2019-02-06T02:07:39.481Z,28.38
2019-02-06T02:08:18.939Z,28.52
2019-02-06T02:09:00.577Z,30.12
2019-02-06T02:09:38.163Z,28.57
2019-02-06T02:10:16.463Z,28.52
2019-02-06T02:10:54.095Z,28.02
2019-02-06T02:11:31.899Z,29.60
2019-02-06T02:12:12.323Z,27.17
2019-02-06T02:12:50.638Z,27.62
2019-02-06T02:13:28.582Z,26.33
2019-02-06T02:14:06.886Z,27.85
2019-02-06T02:14:44.575Z,29.87
2019-02-06T02:15:24.711Z,27.42
2019-02-06T02:16:02.481Z,27.40
2019-02-06T02:16:40.106Z,28.35
2019-02-06T02:17:17.807Z,29.45
2019-02-06T02:17:55.176Z,26.97
2019-02-06T02:18:32.847Z,28.45
2019-02-06T02:19:11.043Z,27.20
2019-02-06T02:19:48.249Z,27.02
2019-02-06T02:20:26.308Z,28.35
2019-02-06T02:21:05.526Z,27.37
2019-02-06T02:21:43.311Z,27.45
2019-02-06T02:22:20.807Z,27.15
2019-02-06T02:22:58.969Z,26.90
2019-02-06T02:23:36.679Z,27.05
2019-02-06T02:24:14.419Z,26.50
2019-02-06T02:24:51.848Z,27.37
2019-02-06T02:25:29.514Z,27.45
2019-02-06T02:26:07.277Z,27.22
2019-02-06T02:26:45.063Z,28.75
2019-02-06T02:27:22.987Z,27.45
2019-02-06T02:28:00.127Z,25.55
2019-02-06T02:28:37.907Z,27.77
2019-02-06T02:29:15.928Z,26.62
2019-02-06T02:29:54.171Z,25.55
2019-02-06T02:30:42.343Z,26.65
2019-02-06T02:31:19.506Z,26.70
2019-02-06T02:31:56.978Z,25.20
2019-02-06T02:32:34.070Z,26.95
2019-02-06T02:33:11.119Z,26.48
2019-02-06T02:33:48.591Z,28.70
2019-02-06T02:34:26.702Z,26.27
2019-02-06T02:35:06.341Z,24.77
2019-02-06T02:35:44.367Z,26.07
2019-02-06T02:36:21.789Z,24.40
2019-02-06T02:36:59.905Z,25.52
2019-02-06T02:37:37.738Z,26.62
2019-02-06T02:38:15.170Z,25.20
2019-02-06T02:38:52.927Z,26.20
2019-02-06T02:39:30.313Z,23.92
2019-02-06T02:40:11.936Z,26.10
2019-02-06T02:40:49.896Z,24.50
2019-02-06T02:41:27.830Z,26.62
2019-02-06T02:42:05.344Z,24.50
2019-02-06T02:42:43.103Z,25.00
2019-02-06T02:43:20.911Z,25.35
2019-02-06T02:43:58.643Z,25.90
2019-02-06T02:44:39.712Z,25.50
2019-02-06T02:45:18.714Z,25.70
2019-02-06T02:45:56.448Z,24.25
2019-02-06T02:46:34.248Z,26.05
2019-02-06T02:47:11.964Z,25.82
2019-02-06T02:47:49.447Z,25.92
2019-02-06T02:48:27.542Z,23.22
2019-02-06T02:49:05.424Z,25.52
2019-02-06T02:49:42.887Z,25.27
2019-02-06T02:50:20.990Z,25.72
2019-02-06T02:50:58.062Z,24.65
2019-02-06T02:51:35.831Z,25.77
2019-02-06T02:52:13.197Z,23.30
2019-02-06T02:52:51.611Z,26.05
2019-02-06T02:53:29.382Z,24.87
2019-02-06T02:54:07.418Z,24.92
2019-02-06T02:54:45.390Z,22.82
2019-02-06T02:55:22.843Z,25.52
2019-02-06T02:56:00.598Z,24.95
2019-02-06T02:56:38.737Z,25.48
2019-02-06T02:57:16.843Z,26.40
2019-02-06T02:57:54.529Z,25.85
2019-02-06T02:58:32.512Z,25.05
2019-02-06T02:59:10.452Z,25.60
2019-02-06T02:59:48.383Z,24.92
2019-02-06T03:00:44.395Z,24.60
2019-02-06T03:01:36.215Z,23.62
2019-02-06T03:02:46.881Z,25.65
2019-02-06T03:03:35.383Z,23.92
2019-02-06T03:04:21.056Z,25.12
2019-02-06T03:05:03.022Z,23.90
2019-02-06T03:05:40.214Z,24.12
2019-02-06T03:06:27.530Z,23.05
2019-02-06T03:06:57.631Z,23.92
2019-02-06T03:07:35.716Z,25.70
2019-02-06T03:08:13.837Z,24.80
2019-02-06T03:08:55.900Z,24.20
2019-02-06T03:09:33.788Z,25.02
2019-02-06T03:10:12.598Z,25.30
2019-02-06T03:10:49.871Z,26.45
2019-02-06T03:11:27.675Z,25.90
2019-02-06T03:12:04.945Z,26.05
2019-02-06T03:12:45.007Z,23.85
2019-02-06T03:13:22.453Z,25.20
2019-02-06T03:13:59.933Z,25.43
2019-02-06T03:14:38.130Z,24.98
2019-02-06T03:15:16.392Z,25.70
2019-02-06T03:15:54.106Z,25.77
2019-02-06T03:16:31.502Z,25.72
2019-02-06T03:17:09.383Z,24.37
2019-02-06T03:17:46.852Z,24.18
2019-02-06T03:18:24.560Z,27.90
2019-02-06T03:19:01.935Z,26.02
2019-02-06T03:19:39.589Z,26.68
2019-02-06T03:20:17.280Z,25.85
2019-02-06T03:20:54.989Z,27.80
2019-02-06T03:21:32.758Z,26.30
2019-02-06T03:22:10.344Z,25.77
2019-02-06T03:22:49.923Z,25.45
2019-02-06T03:23:31.406Z,25.48
2019-02-06T03:24:08.595Z,24.98
2019-02-06T03:24:46.612Z,25.70
2019-02-06T03:25:24.293Z,24.65
2019-02-06T03:26:01.966Z,24.85
2019-02-06T03:26:39.745Z,24.98
2019-02-06T03:27:17.530Z,25.68
2019-02-06T03:27:55.500Z,27.37
2019-02-06T03:28:33.315Z,25.57
2019-02-06T03:29:13.140Z,24.40
2019-02-06T03:29:50.833Z,25.35
2019-02-06T03:30:28.321Z,24.55
2019-02-06T03:31:06.327Z,24.32
2019-02-06T03:31:44.333Z,23.60
2019-02-06T03:32:22.340Z,23.73
2019-02-06T03:33:00.269Z,25.52
2019-02-06T03:33:37.745Z,25.68
2019-02-06T03:34:17.511Z,24.98
2019-02-06T03:34:58.848Z,25.27
2019-02-06T03:35:42.739Z,24.35
2019-02-06T03:36:19.460Z,24.43
2019-02-06T03:36:57.150Z,24.65
2019-02-06T03:37:34.817Z,26.68
2019-02-06T03:38:12.916Z,23.52
2019-02-06T03:38:50.796Z,24.45
2019-02-06T03:39:28.783Z,22.67
2019-02-06T03:40:07.856Z,26.40
2019-02-06T03:40:45.996Z,24.43
2019-02-06T03:41:23.102Z,24.32
2019-02-06T03:42:00.836Z,23.15
2019-02-06T03:42:54.397Z,24.85
2019-02-06T03:43:40.901Z,23.02
2019-02-06T03:44:18.021Z,24.32
2019-02-06T03:44:55.533Z,23.10
2019-02-06T03:45:33.074Z,25.00
2019-02-06T03:46:11.218Z,23.20
2019-02-06T03:46:49.007Z,23.92
2019-02-06T03:47:26.793Z,24.05
2019-02-06T03:48:04.784Z,24.20
2019-02-06T03:48:44.055Z,25.15
2019-02-06T03:49:24.119Z,24.98
2019-02-06T03:50:02.376Z,26.33
2019-02-06T03:50:47.397Z,24.43
2019-02-06T03:51:24.457Z,25.25
2019-02-06T03:52:02.516Z,25.10
2019-02-06T03:52:40.591Z,23.57
2019-02-06T03:53:18.340Z,22.95
2019-02-06T03:53:56.591Z,23.42
2019-02-06T03:54:34.268Z,24.00
2019-02-06T03:55:14.968Z,23.62
2019-02-06T03:55:52.449Z,24.10
2019-02-06T03:56:30.237Z,25.17
2019-02-06T03:57:07.713Z,23.80
2019-02-06T03:57:45.553Z,24.00
2019-02-06T03:58:23.732Z,23.60
2019-02-06T03:59:01.351Z,23.62
2019-02-06T03:59:39.216Z,24.45
2019-02-06T04:00:17.048Z,25.60
2019-02-06T04:00:53.862Z,24.07
2019-02-06T04:01:31.993Z,24.60
2019-02-06T04:02:09.487Z,23.40
2019-02-06T04:02:47.169Z,24.63
2019-02-06T04:03:33.609Z,25.62
2019-02-06T04:04:11.188Z,24.75
2019-02-06T04:04:48.308Z,24.00
2019-02-06T04:05:26.196Z,23.42
2019-02-06T04:06:03.672Z,26.52
2019-02-06T04:06:52.879Z,24.60
2019-02-06T04:07:20.349Z,27.25
2019-02-06T04:07:57.458Z,25.05
2019-02-06T04:08:34.614Z,26.15
2019-02-06T04:09:12.516Z,26.33
2019-02-06T04:09:50.503Z,24.20
2019-02-06T04:10:28.436Z,26.75
2019-02-06T04:11:06.168Z,25.10
2019-02-06T04:11:47.442Z,25.17
2019-02-06T04:12:24.913Z,24.10
2019-02-06T04:13:02.936Z,25.17
2019-02-06T04:13:41.060Z,25.55
2019-02-06T04:14:18.279Z,24.37
2019-02-06T04:14:55.960Z,23.80
2019-02-06T04:15:34.153Z,25.65
2019-02-06T04:16:11.628Z,24.05
2019-02-06T04:16:51.784Z,25.95
2019-02-06T04:17:29.981Z,23.38
2019-02-06T04:18:07.590Z,24.67
2019-02-06T04:18:46.083Z,25.23
2019-02-06T04:19:29.877Z,24.47
2019-02-06T04:20:09.296Z,23.85
2019-02-06T04:20:47.426Z,23.70
2019-02-06T04:21:25.576Z,24.25
2019-02-06T04:22:03.704Z,24.87
2019-02-06T04:22:41.881Z,25.60
2019-02-06T04:23:19.665Z,25.02
2019-02-06T04:23:57.659Z,26.30
2019-02-06T04:24:35.678Z,24.00
2019-02-06T04:25:13.380Z,25.20
2019-02-06T04:25:51.328Z,24.85
2019-02-06T04:26:28.750Z,24.50
2019-02-06T04:27:06.684Z,25.45
2019-02-06T04:27:48.668Z,25.27
2019-02-06T04:28:28.862Z,26.15
2019-02-06T04:29:06.648Z,24.43
2019-02-06T04:29:44.094Z,23.65
2019-02-06T04:30:22.304Z,24.52
2019-02-06T04:30:59.748Z,24.02
2019-02-06T04:31:37.777Z,24.45
2019-02-06T04:32:15.225Z,24.92
2019-02-06T04:32:53.148Z,26.07
2019-02-06T04:33:30.804Z,22.87
2019-02-06T04:34:07.980Z,24.80
2019-02-06T04:34:45.084Z,24.27
2019-02-06T04:35:22.304Z,25.48
2019-02-06T04:36:01.266Z,25.08
2019-02-06T04:36:38.932Z,26.00
2019-02-06T04:37:18.600Z,25.75
2019-02-06T04:37:59.191Z,23.52
2019-02-06T04:38:37.079Z,24.05
2019-02-06T04:39:15.224Z,27.10
2019-02-06T04:39:53.395Z,24.52
2019-02-06T04:40:33.330Z,26.80
2019-02-06T04:41:10.854Z,23.62
2019-02-06T04:41:48.333Z,25.10
2019-02-06T04:42:25.836Z,27.32
2019-02-06T04:43:03.208Z,25.30
2019-02-06T04:43:41.194Z,25.08
2019-02-06T04:44:18.944Z,26.35
2019-02-06T04:44:56.549Z,24.25
2019-02-06T04:45:34.356Z,24.32
2019-02-06T04:46:12.479Z,23.73
2019-02-06T04:46:50.026Z,24.60
2019-02-06T04:47:27.524Z,25.17
2019-02-06T04:48:05.084Z,24.50
2019-02-06T04:48:43.021Z,24.40
2019-02-06T04:49:20.400Z,24.87
2019-02-06T04:49:58.297Z,25.00
2019-02-06T04:50:36.352Z,25.65
2019-02-06T04:51:13.866Z,24.55
2019-02-06T04:51:51.390Z,25.15
2019-02-06T04:52:46.323Z,23.32
2019-02-06T04:53:40.138Z,23.22
2019-02-06T04:54:34.264Z,23.40
2019-02-06T04:55:30.382Z,23.22
2019-02-06T04:56:08.228Z,23.67
2019-02-06T04:56:45.906Z,22.95
2019-02-06T04:57:23.380Z,23.55
2019-02-06T04:58:00.709Z,23.00
2019-02-06T04:58:38.226Z,22.73
2019-02-06T04:59:15.457Z,24.35
2019-02-06T04:59:56.245Z,25.00
2019-02-06T05:00:34.048Z,25.80
2019-02-06T05:01:11.848Z,24.25
2019-02-06T05:01:49.872Z,24.70
2019-02-06T05:02:29.961Z,25.35
2019-02-06T05:03:13.800Z,24.60
2019-02-06T05:03:51.270Z,25.80
2019-02-06T05:04:29.325Z,24.95
2019-02-06T05:05:08.099Z,24.72
2019-02-06T05:05:45.650Z,24.07
2019-02-06T05:06:23.248Z,23.32
2019-02-06T05:07:01.444Z,26.05
2019-02-06T05:07:38.901Z,24.77
2019-02-06T05:08:16.725Z,24.05
2019-02-06T05:08:54.165Z,24.02
2019-02-06T05:09:35.456Z,26.12
2019-02-06T05:10:13.877Z,25.25
2019-02-06T05:10:51.833Z,25.90
2019-02-06T05:11:29.300Z,25.08
2019-02-06T05:12:09.544Z,25.40
2019-02-06T05:12:46.284Z,25.20
2019-02-06T05:13:24.483Z,24.47
2019-02-06T05:14:08.262Z,24.75
2019-02-06T05:14:45.722Z,26.17
2019-02-06T05:15:23.852Z,25.85
2019-02-06T05:16:01.592Z,25.35
2019-02-06T05:16:39.631Z,25.85
2019-02-06T05:17:17.795Z,25.60
2019-02-06T05:17:56.014Z,24.60
2019-02-06T05:18:33.754Z,24.98
2019-02-06T05:19:11.232Z,26.70
2019-02-06T05:19:48.812Z,25.70
2019-02-06T05:20:37.203Z,24.40
2019-02-06T05:21:19.476Z,27.07
2019-02-06T05:21:57.125Z,27.62
2019-02-06T05:22:34.845Z,27.30
2019-02-06T05:23:13.054Z,26.68
2019-02-06T05:23:50.797Z,24.80
2019-02-06T05:24:28.808Z,26.45
2019-02-06T05:25:07.104Z,25.17
2019-02-06T05:25:44.556Z,25.68
2019-02-06T05:26:22.460Z,25.35
2019-02-06T05:27:00.977Z,25.80
2019-02-06T05:27:38.852Z,23.75
2019-02-06T05:28:18.277Z,26.15
2019-02-06T05:28:55.882Z,26.00
2019-02-06T05:29:33.861Z,24.50
2019-02-06T05:30:12.288Z,24.70
2019-02-06T05:30:50.017Z,24.37
2019-02-06T05:31:27.298Z,26.17
2019-02-06T05:32:04.973Z,25.20
2019-02-06T05:32:42.967Z,23.12
2019-02-06T05:33:21.078Z,24.90
2019-02-06T05:33:58.855Z,26.05
2019-02-06T05:34:36.529Z,24.98
2019-02-06T05:35:23.982Z,24.60
2019-02-06T05:36:01.325Z,25.65
2019-02-06T05:36:39.276Z,23.87
2019-02-06T05:37:16.322Z,24.00
2019-02-06T05:37:55.929Z,24.37
2019-02-06T05:38:33.801Z,24.40
2019-02-06T05:39:21.922Z,25.08
2019-02-06T05:39:59.729Z,22.15
2019-02-06T05:40:38.028Z,25.08
2019-02-06T05:41:18.043Z,23.30
2019-02-06T05:41:55.852Z,24.45
2019-02-06T05:42:33.612Z,24.47
2019-02-06T05:43:11.199Z,24.57
2019-02-06T05:43:48.985Z,25.00
2019-02-06T05:44:26.589Z,26.00
2019-02-06T05:45:04.046Z,24.85
2019-02-06T05:45:42.189Z,23.98
2019-02-06T05:46:20.025Z,25.20
2019-02-06T05:46:58.038Z,25.05
2019-02-06T05:47:36.216Z,24.12
2019-02-06T05:48:13.690Z,23.55
2019-02-06T05:48:50.761Z,24.75
2019-02-06T05:49:28.249Z,25.12
2019-02-06T05:50:06.940Z,24.75
2019-02-06T05:50:45.065Z,22.87
2019-02-06T05:51:22.518Z,25.15
2019-02-06T05:52:02.886Z,25.23
2019-02-06T05:52:39.691Z,23.77
2019-02-06T05:53:17.816Z,25.77
2019-02-06T05:53:54.890Z,24.40
2019-02-06T05:54:32.571Z,24.92
2019-02-06T05:55:10.059Z,24.20
2019-02-06T05:55:47.529Z,25.08
2019-02-06T05:56:25.406Z,25.27
2019-02-06T05:57:03.407Z,24.70
2019-02-06T05:57:41.193Z,27.13
2019-02-06T05:58:18.699Z,23.95
2019-02-06T05:58:56.799Z,24.32
2019-02-06T05:59:37.029Z,25.05
2019-02-06T06:00:20.215Z,24.92
2019-02-06T06:00:58.282Z,24.63
2019-02-06T06:01:35.541Z,23.95
2019-02-06T06:02:13.376Z,24.92
2019-02-06T06:02:51.536Z,25.82
2019-02-06T06:03:29.564Z,25.02
2019-02-06T06:04:07.310Z,24.82
2019-02-06T06:04:45.068Z,25.70
2019-02-06T06:05:23.189Z,23.32
2019-02-06T06:06:00.710Z,23.65
2019-02-06T06:06:38.541Z,26.30
2019-02-06T06:07:16.653Z,25.43
2019-02-06T06:07:54.511Z,25.90
2019-02-06T06:08:32.460Z,24.95
2019-02-06T06:09:10.802Z,25.12
2019-02-06T06:09:48.377Z,25.85
2019-02-06T06:10:26.232Z,23.07
2019-02-06T06:11:03.967Z,25.35
2019-02-06T06:11:41.873Z,27.00
2019-02-06T06:12:19.929Z,25.92
2019-02-06T06:12:57.717Z,26.68
2019-02-06T06:13:35.696Z,26.55
2019-02-06T06:14:13.202Z,24.52
2019-02-06T06:14:50.855Z,25.90
2019-02-06T06:15:28.949Z,26.40
2019-02-06T06:16:06.917Z,24.57
2019-02-06T06:16:44.619Z,25.40
2019-02-06T06:17:22.254Z,26.48
2019-02-06T06:18:00.535Z,24.52
2019-02-06T06:18:38.161Z,25.25
2019-02-06T06:19:16.277Z,25.05
2019-02-06T06:19:54.047Z,24.05
2019-02-06T06:20:31.157Z,27.50
2019-02-06T06:21:08.933Z,26.60
2019-02-06T06:21:46.573Z,26.75
2019-02-06T06:22:24.589Z,24.95
2019-02-06T06:23:02.284Z,27.02
2019-02-06T06:23:40.267Z,26.10
2019-02-06T06:24:17.639Z,24.63
2019-02-06T06:24:55.323Z,26.45
2019-02-06T06:25:32.730Z,26.10
2019-02-06T06:26:10.681Z,25.85
2019-02-06T06:26:47.777Z,25.15
2019-02-06T06:27:25.225Z,25.62
2019-02-06T06:28:03.234Z,26.48
2019-02-06T06:28:40.287Z,25.25
2019-02-06T06:29:18.278Z,26.90
2019-02-06T06:29:55.652Z,25.12
2019-02-06T06:30:33.827Z,27.98
2019-02-06T06:31:11.666Z,26.82
2019-02-06T06:31:49.317Z,26.05
2019-02-06T06:32:26.723Z,25.50
2019-02-06T06:33:04.734Z,27.48
2019-02-06T06:33:42.403Z,24.63
2019-02-06T06:34:20.081Z,26.57
2019-02-06T06:34:57.835Z,26.80
2019-02-06T06:35:35.327Z,26.33
2019-02-06T06:36:12.485Z,26.20
2019-02-06T06:36:49.878Z,27.00
2019-02-06T06:37:27.659Z,26.00
2019-02-06T06:38:06.132Z,27.90
2019-02-06T06:38:43.543Z,26.93
2019-02-06T06:39:21.209Z,24.57
2019-02-06T06:39:59.213Z,24.92
2019-02-06T06:40:37.129Z,26.65
2019-02-06T06:41:14.842Z,25.85
2019-02-06T06:41:51.844Z,25.85
2019-02-06T06:42:29.648Z,24.82
2019-02-06T06:43:07.357Z,27.67
2019-02-06T06:43:45.007Z,26.35
2019-02-06T06:44:23.110Z,26.57
2019-02-06T06:45:02.014Z,26.90
2019-02-06T06:45:39.694Z,26.23
2019-02-06T06:46:17.163Z,25.50
2019-02-06T06:46:54.949Z,24.32
2019-02-06T06:47:32.538Z,25.35
2019-02-06T06:48:10.401Z,26.02
2019-02-06T06:48:48.243Z,27.07
2019-02-06T06:49:26.306Z,27.17
2019-02-06T06:50:08.861Z,26.45
2019-02-06T06:50:46.999Z,26.82
2019-02-06T06:51:25.105Z,26.27
2019-02-06T06:52:04.007Z,28.12
2019-02-06T06:52:44.689Z,24.70
2019-02-06T06:53:27.085Z,26.27
2019-02-06T06:54:04.962Z,25.88
2019-02-06T06:54:43.362Z,26.20
2019-02-06T06:55:21.554Z,25.97
2019-02-06T06:55:59.663Z,26.52
2019-02-06T06:56:37.722Z,25.77
2019-02-06T06:57:15.812Z,25.32
2019-02-06T06:57:53.531Z,27.98
2019-02-06T06:58:30.895Z,25.52
2019-02-06T06:59:08.852Z,25.35
2019-02-06T06:59:46.574Z,25.27
2019-02-06T07:00:28.681Z,24.90
2019-02-06T07:01:06.145Z,25.88
2019-02-06T07:01:44.053Z,28.27
2019-02-06T07:02:22.025Z,26.48
2019-02-06T07:03:00.115Z,25.92
2019-02-06T07:03:38.091Z,25.72
2019-02-06T07:04:15.255Z,26.42
2019-02-06T07:04:52.783Z,26.30
2019-02-06T07:05:30.615Z,26.55
2019-02-06T07:06:08.315Z,24.95
2019-02-06T07:06:46.546Z,26.40
2019-02-06T07:07:24.596Z,26.17
2019-02-06T07:08:09.679Z,26.12
2019-02-06T07:08:41.903Z,26.65
2019-02-06T07:09:19.707Z,25.55
2019-02-06T07:09:57.467Z,26.73
2019-02-06T07:10:35.219Z,26.73
2019-02-06T07:11:13.132Z,24.77
2019-02-06T07:11:50.625Z,25.43
2019-02-06T07:12:28.412Z,27.62
2019-02-06T07:13:06.193Z,28.30
2019-02-06T07:13:43.311Z,24.80
2019-02-06T07:14:20.843Z,28.15
2019-02-06T07:14:58.533Z,27.32
2019-02-06T07:15:36.929Z,24.23
2019-02-06T07:16:14.409Z,27.00
2019-02-06T07:16:52.055Z,25.40
2019-02-06T07:17:30.133Z,27.60
2019-02-06T07:18:08.347Z,26.60
2019-02-06T07:18:46.273Z,27.15
2019-02-06T07:19:23.987Z,25.17
2019-02-06T07:20:01.637Z,27.82
2019-02-06T07:20:39.343Z,26.15
2019-02-06T07:21:17.206Z,25.32
2019-02-06T07:21:54.990Z,25.30
2019-02-06T07:22:32.673Z,25.75
2019-02-06T07:23:10.817Z,26.65
2019-02-06T07:23:48.451Z,26.52
2019-02-06T07:24:26.457Z,26.40
2019-02-06T07:25:05.969Z,26.15
2019-02-06T07:25:46.741Z,25.15
2019-02-06T07:26:26.557Z,27.30
2019-02-06T07:27:04.514Z,25.40
2019-02-06T07:27:42.335Z,24.47
2019-02-06T07:28:20.403Z,26.93
2019-02-06T07:28:58.211Z,25.10
2019-02-06T07:29:36.429Z,24.15
2019-02-06T07:30:22.725Z,27.82
2019-02-06T07:31:00.683Z,26.37
2019-02-06T07:31:38.573Z,24.77
2019-02-06T07:32:22.295Z,25.27
2019-02-06T07:33:00.750Z,26.00
2019-02-06T07:33:38.717Z,24.23
2019-02-06T07:34:16.750Z,24.57
2019-02-06T07:34:57.465Z,26.35
2019-02-06T07:35:35.760Z,23.87
2019-02-06T07:36:15.157Z,25.77
2019-02-06T07:36:52.860Z,27.10
2019-02-06T07:37:30.561Z,26.93
2019-02-06T07:38:08.308Z,26.73
2019-02-06T07:38:46.011Z,25.75
2019-02-06T07:39:23.696Z,25.43
2019-02-06T07:40:01.057Z,26.17
2019-02-06T07:40:39.066Z,26.23
2019-02-06T07:41:16.743Z,25.30
2019-02-06T07:41:57.148Z,26.82
2019-02-06T07:42:34.957Z,25.05
2019-02-06T07:43:13.063Z,25.32
2019-02-06T07:43:50.580Z,25.88
2019-02-06T07:44:28.488Z,24.98
2019-02-06T07:45:09.163Z,24.25
2019-02-06T07:45:49.141Z,23.50
2019-02-06T07:46:27.373Z,25.30
2019-02-06T07:47:04.797Z,25.05
2019-02-06T07:47:43.321Z,24.20
2019-02-06T07:48:21.002Z,25.12
2019-02-06T07:48:58.679Z,25.77
2019-02-06T07:49:36.801Z,23.85
2019-02-06T07:50:17.399Z,25.60
2019-02-06T07:50:54.510Z,24.60
2019-02-06T07:51:32.271Z,25.43
2019-02-06T07:52:10.181Z,25.60
2019-02-06T07:52:48.158Z,24.07
2019-02-06T07:53:25.875Z,23.90
2019-02-06T07:54:03.602Z,24.55
2019-02-06T07:54:41.433Z,24.55
2019-02-06T07:55:18.903Z,24.52
2019-02-06T07:55:56.363Z,23.73
2019-02-06T07:56:36.608Z,23.30
2019-02-06T07:57:14.272Z,24.70
2019-02-06T07:57:51.667Z,25.50
2019-02-06T07:58:29.685Z,22.55
2019-02-06T07:59:08.107Z,24.40
2019-02-06T07:59:45.641Z,22.37
2019-02-06T08:00:23.358Z,25.65
2019-02-06T08:01:01.329Z,24.43
2019-02-06T08:01:38.954Z,25.10
2019-02-06T08:02:19.405Z,24.00
2019-02-06T08:02:57.606Z,24.50
2019-02-06T08:03:35.317Z,23.85
2019-02-06T08:04:13.451Z,24.67
2019-02-06T08:04:51.415Z,23.62
2019-02-06T08:05:29.253Z,24.20
2019-02-06T08:06:07.290Z,25.30
2019-02-06T08:07:03.915Z,24.60
2019-02-06T08:07:48.546Z,23.10
2019-02-06T08:08:35.724Z,23.45
2019-02-06T08:09:08.373Z,23.18
2019-02-06T08:09:46.327Z,24.95
2019-02-06T08:10:30.286Z,24.43
2019-02-06T08:11:07.733Z,23.15
2019-02-06T08:11:45.107Z,23.22
2019-02-06T08:12:22.689Z,24.77
2019-02-06T08:13:01.200Z,24.60
2019-02-06T08:13:38.790Z,25.20
2019-02-06T08:14:16.302Z,23.35
2019-02-06T08:14:54.238Z,23.27
2019-02-06T08:15:31.828Z,24.50
2019-02-06T08:16:09.028Z,24.80